Time;durP1;ratioP1;P1;durP2;ratioP2;P2;SDS_P1;SDS_P2;PMS_P1;PMS_P2;Temp;Humidity;BMP_temperature;BMP_pressure;BME280_temperature;BME280_humidity;BME280_pressure;Samples;Min_cycle;Max_cycle;Signal;HPM_P1;HPM_P2
2022/05/01 00:00:07;;;;;;;1.60;1.50;;;23.60;52.20;;;;;;5075868;28;20436;-83
2022/05/01 00:02:34;;;;;;;1.97;1.87;;;23.60;52.20;;;;;;5075572;28;20445;-83
2022/05/01 00:05:01;;;;;;;1.60;1.50;;;23.60;52.20;;;;;;5075740;28;20472;-83
2022/05/01 00:07:27;;;;;;;1.60;1.50;;;23.60;52.20;;;;;;5075966;28;20907;-82
2022/05/01 00:09:54;;;;;;;1.67;1.57;;;23.60;52.20;;;;;;5075915;28;20477;-83
2022/05/01 00:12:22;;;;;;;2.30;1.40;;;23.50;52.20;;;;;;5075925;28;20452;-82
2022/05/01 00:14:51;;;;;;;1.77;1.67;;;23.60;52.20;;;;;;5057825;28;20441;-82
2022/05/01 00:17:18;;;;;;;1.40;1.30;;;23.60;52.20;;;;;;5075746;28;20480;-82
2022/05/01 00:19:45;;;;;;;1.67;1.57;;;23.60;52.20;;;;;;5057288;28;20444;-82
2022/05/01 00:22:11;;;;;;;2.10;1.90;;;23.60;52.20;;;;;;5075655;28;20441;-87
2022/05/01 00:24:38;;;;;;;1.50;1.33;;;23.60;52.20;;;;;;5075736;28;20786;-82
2022/05/01 00:27:05;;;;;;;1.70;1.60;;;23.60;52.20;;;;;;5075392;28;20437;-85
2022/05/01 00:29:32;;;;;;;1.63;1.50;;;23.60;52.20;;;;;;5075453;28;20446;-84
2022/05/01 00:32:02;;;;;;;1.40;1.23;;;23.60;52.30;;;;;;5075368;28;20444;-88
2022/05/01 00:37:13;;;;;;;2.00;1.90;;;23.60;52.20;;;;;;5075229;28;20448;-83
2022/05/01 00:39:40;;;;;;;1.50;1.40;;;23.60;52.30;;;;;;5075228;28;20451;-83
2022/05/01 00:42:06;;;;;;;1.83;1.73;;;23.50;52.20;;;;;;5074796;28;20448;-83
2022/05/01 00:44:34;;;;;;;1.80;1.70;;;23.60;52.30;;;;;;5074776;28;20971;-82
2022/05/01 00:47:02;;;;;;;1.87;1.77;;;23.50;52.20;;;;;;5074819;28;20473;-82
2022/05/01 00:49:29;;;;;;;1.70;1.60;;;23.70;52.40;;;;;;5074887;28;20840;-82
2022/05/01 00:51:59;;;;;;;1.50;1.40;;;23.60;52.30;;;;;;5040626;28;20445;-83
2022/05/01 00:54:27;;;;;;;1.60;1.50;;;23.60;52.30;;;;;;5074969;28;20835;-83
2022/05/01 00:56:56;;;;;;;1.70;1.60;;;23.60;52.30;;;;;;5074611;28;20467;-84
2022/05/01 00:59:23;;;;;;;1.50;1.40;;;23.60;52.30;;;;;;5074788;28;20452;-83
2022/05/01 01:01:52;;;;;;;1.50;1.40;;;23.60;52.30;;;;;;5074951;28;20437;-83
2022/05/01 01:04:20;;;;;;;1.37;1.27;;;23.70;52.40;;;;;;5074480;28;20452;-83
2022/05/01 01:06:49;;;;;;;1.77;1.63;;;23.50;52.30;;;;;;5074722;28;20440;-83
2022/05/01 01:09:16;;;;;;;1.63;1.53;;;23.50;52.30;;;;;;5074714;28;20542;-83
2022/05/01 01:11:43;;;;;;;1.50;1.40;;;23.50;52.30;;;;;;5074611;28;20441;-83
2022/05/01 01:14:11;;;;;;;1.50;1.20;;;23.50;52.30;;;;;;5074712;28;20444;-88
2022/05/01 01:16:39;;;;;;;1.77;1.67;;;23.50;52.30;;;;;;5074335;28;20444;-87
2022/05/01 01:19:08;;;;;;;1.47;1.37;;;23.50;52.30;;;;;;5074438;28;20464;-84
2022/05/01 01:21:36;;;;;;;1.57;1.47;;;23.50;52.30;;;;;;5074506;28;20436;-83
2022/05/01 01:24:06;;;;;;;1.57;1.47;;;23.50;52.30;;;;;;5074510;28;20484;-84
2022/05/01 01:26:35;;;;;;;1.70;1.60;;;23.50;52.30;;;;;;5074452;28;20444;-84
2022/05/01 01:31:40;;;;;;;1.60;1.50;;;23.50;52.40;;;;;;5074089;28;20520;-83
2022/05/01 01:31:50;;;;;;;1.67;1.57;;;23.50;52.30;;;;;;5074176;28;20464;-83
2022/05/01 01:34:21;;;;;;;2.00;1.40;;;23.50;52.40;;;;;;5073926;28;20600;-83
2022/05/01 01:36:50;;;;;;;2.20;1.63;;;23.50;52.30;;;;;;5074187;28;20441;-84
2022/05/01 01:39:18;;;;;;;1.50;1.40;;;23.50;52.30;;;;;;5073304;28;20437;-83
2022/05/01 01:41:47;;;;;;;1.90;1.80;;;23.50;52.40;;;;;;5074068;28;20445;-83
2022/05/01 01:44:14;;;;;;;1.40;1.30;;;23.50;52.30;;;;;;5073650;28;20449;-83
2022/05/01 01:46:41;;;;;;;1.30;1.20;;;23.50;52.40;;;;;;5074013;28;20441;-83
2022/05/01 01:49:10;;;;;;;1.60;1.50;;;23.50;52.40;;;;;;5073518;28;20572;-84
2022/05/01 01:51:37;;;;;;;1.50;1.40;;;23.50;52.40;;;;;;5074004;28;20464;-84
2022/05/01 01:54:06;;;;;;;1.40;1.30;;;23.50;52.40;;;;;;5073935;28;20459;-82
2022/05/01 01:56:32;;;;;;;1.70;1.60;;;23.50;52.40;;;;;;5073852;28;20931;-82
2022/05/01 01:58:59;;;;;;;1.50;1.40;;;23.50;52.40;;;;;;5072896;28;20457;-82
2022/05/01 02:01:26;;;;;;;1.40;1.30;;;23.50;52.40;;;;;;5073605;28;20432;-82
2022/05/01 02:03:52;;;;;;;1.50;1.40;;;23.50;52.40;;;;;;5073691;28;20444;-82
2022/05/01 02:06:19;;;;;;;1.70;1.47;;;23.50;52.40;;;;;;5073410;28;20473;-82
2022/05/01 02:08:47;;;;;;;1.80;1.70;;;23.50;52.40;;;;;;5073350;28;20508;-83
2022/05/01 02:11:17;;;;;;;1.63;1.50;;;23.50;52.40;;;;;;5073593;28;20503;-83
2022/05/01 02:13:43;;;;;;;1.53;1.43;;;23.50;52.40;;;;;;5073327;28;20441;-82
2022/05/01 02:16:10;;;;;;;1.50;1.40;;;23.50;52.40;;;;;;5073470;28;20444;-83
2022/05/01 02:18:37;;;;;;;1.43;1.33;;;23.50;52.40;;;;;;5073239;28;20919;-82
2022/05/01 02:23:47;;;;;;;1.47;1.37;;;23.40;52.30;;;;;;5073088;28;20463;-83
2022/05/01 02:26:16;;;;;;;1.70;1.50;;;23.50;52.40;;;;;;5073400;28;20441;-84
2022/05/01 02:28:42;;;;;;;1.50;1.40;;;23.50;52.40;;;;;;5072975;28;20489;-84
2022/05/01 02:31:09;;;;;;;1.60;1.50;;;23.40;52.30;;;;;;5073093;28;20448;-84
2022/05/01 02:33:37;;;;;;;1.63;1.53;;;23.40;52.30;;;;;;5073286;28;20433;-84
2022/05/01 02:36:05;;;;;;;1.93;1.47;;;23.50;52.40;;;;;;5073298;28;20451;-83
2022/05/01 02:38:34;;;;;;;1.70;1.60;;;23.40;52.30;;;;;;5072963;28;20447;-84
2022/05/01 02:41:00;;;;;;;1.53;1.43;;;23.50;52.40;;;;;;5072894;28;20441;-83
2022/05/01 02:43:29;;;;;;;1.93;1.83;;;23.40;52.30;;;;;;5073033;28;20460;-83
2022/05/01 02:45:55;;;;;;;1.60;1.50;;;23.40;52.20;;;;;;5073167;28;20437;-83
2022/05/01 02:48:22;;;;;;;1.50;1.40;;;23.40;52.20;;;;;;5072693;28;20472;-82
2022/05/01 02:50:49;;;;;;;1.77;1.67;;;23.40;52.30;;;;;;5073153;28;20443;-82
2022/05/01 02:53:16;;;;;;;1.50;1.40;;;23.50;52.40;;;;;;5072978;28;20436;-82
2022/05/01 02:55:42;;;;;;;1.53;1.43;;;23.40;52.30;;;;;;5073061;28;20931;-82
2022/05/01 02:58:09;;;;;;;1.70;1.60;;;23.40;52.20;;;;;;5072680;28;20465;-82
2022/05/01 03:00:37;;;;;;;1.50;1.40;;;23.40;52.30;;;;;;5073090;28;20448;-82
2022/05/01 03:03:04;;;;;;;1.50;1.40;;;23.40;52.20;;;;;;5073137;28;20433;-82
2022/05/01 03:05:31;;;;;;;1.50;1.40;;;23.40;52.20;;;;;;5072622;28;20475;-83
2022/05/01 03:07:58;;;;;;;1.53;1.43;;;23.40;52.20;;;;;;5072779;28;20436;-83
2022/05/01 03:10:25;;;;;;;1.70;1.60;;;23.50;52.30;;;;;;5073555;28;20452;-83
2022/05/01 03:12:51;;;;;;;1.43;1.33;;;23.40;52.20;;;;;;5076718;28;20441;-83
2022/05/01 03:15:18;;;;;;;1.50;1.30;;;23.40;52.20;;;;;;5076895;28;20445;-83
2022/05/01 03:23:15;;;;;;;1.70;1.60;;;23.40;52.20;;;;;;5076911;28;20423;-82
2022/05/01 03:25:42;;;;;;;1.60;1.50;;;23.40;52.30;;;;;;5076837;28;20433;-83
2022/05/01 03:28:09;;;;;;;1.50;1.40;;;23.40;52.20;;;;;;5058561;28;20453;-83
2022/05/01 03:30:35;;;;;;;1.33;1.23;;;23.40;52.20;;;;;;5076592;28;20441;-83
2022/05/01 03:33:06;;;;;;;1.50;1.40;;;23.40;52.20;;;;;;5076530;28;20441;-82
2022/05/01 03:35:35;;;;;;;1.40;1.30;;;23.40;52.20;;;;;;5076440;28;20449;-82
2022/05/01 03:38:03;;;;;;;1.73;1.63;;;23.40;52.20;;;;;;5076251;28;20471;-83
2022/05/01 03:40:30;;;;;;;1.57;1.47;;;23.40;52.10;;;;;;5042203;28;20818;-82
2022/05/01 03:42:57;;;;;;;1.63;1.53;;;23.40;52.10;;;;;;5076109;28;20444;-82
2022/05/01 03:45:24;;;;;;;1.50;1.40;;;23.40;52.20;;;;;;5076380;28;20444;-83
2022/05/01 03:47:51;;;;;;;1.73;1.63;;;23.40;52.10;;;;;;5076382;28;20440;-83
2022/05/01 03:50:19;;;;;;;1.50;1.40;;;23.40;52.10;;;;;;5075713;28;20484;-83
2022/05/01 03:52:46;;;;;;;1.37;1.27;;;23.40;52.10;;;;;;5075994;28;20518;-83
2022/05/01 03:55:13;;;;;;;1.50;1.40;;;23.40;52.20;;;;;;5076279;28;20838;-83
2022/05/01 03:57:40;;;;;;;1.73;1.60;;;23.40;52.10;;;;;;5075875;28;20460;-82
2022/05/01 04:00:10;;;;;;;1.50;1.40;;;23.40;52.10;;;;;;5076124;28;20444;-82
2022/05/01 04:02:42;;;;;;;1.50;1.40;;;23.40;52.10;;;;;;5075788;28;20804;-88
2022/05/01 04:05:09;;;;;;;1.90;1.80;;;23.40;52.10;;;;;;5075818;28;20937;-84
2022/05/01 04:07:38;;;;;;;1.40;1.30;;;23.40;52.10;;;;;;5075759;28;20437;-84
2022/05/01 04:10:06;;;;;;;1.50;1.40;;;23.40;52.10;;;;;;5075775;28;20485;-84
2022/05/01 04:12:36;;;;;;;1.50;1.40;;;23.40;52.10;;;;;;5075771;28;20441;-84
2022/05/01 04:15:07;;;;;;;1.60;1.50;;;23.40;52.10;;;;;;5055758;28;20503;-84
2022/05/01 04:17:37;;;;;;;1.93;1.77;;;23.40;52.00;;;;;;5038378;28;20447;-84
2022/05/01 04:20:05;;;;;;;1.50;1.40;;;23.40;52.10;;;;;;5055808;28;20814;-82
2022/05/01 04:22:40;;;;;;;1.60;1.50;;;23.40;52.00;;;;;;5055143;28;20477;-82
2022/05/01 04:25:13;;;;;;;1.63;1.53;;;23.40;52.00;;;;;;5039725;28;20449;-82
2022/05/01 04:27:40;;;;;;;1.70;1.60;;;23.40;52.00;;;;;;5055593;28;20465;-81
2022/05/01 04:30:13;;;;;;;1.63;1.53;;;23.40;52.00;;;;;;5055624;28;20489;-88
2022/05/01 04:32:50;;;;;;;1.63;1.53;;;23.40;52.00;;;;;;5056425;28;20438;-81
2022/05/01 04:35:28;;;;;;;1.60;1.50;;;23.40;52.00;;;;;;5075785;28;20439;-80
2022/05/01 04:37:59;;;;;;;1.70;1.60;;;23.40;52.00;;;;;;5075464;28;20519;-82
2022/05/01 04:40:28;;;;;;;1.90;1.80;;;23.40;52.10;;;;;;5075392;28;20822;-83
2022/05/01 04:43:02;;;;;;;2.27;1.43;;;23.40;52.10;;;;;;5075204;28;20444;-82
2022/05/01 04:45:29;;;;;;;1.60;1.50;;;23.40;52.00;;;;;;5075176;28;20460;-83
2022/05/01 04:47:58;;;;;;;1.57;1.47;;;23.40;52.10;;;;;;5075074;28;20445;-83
2022/05/01 04:50:26;;;;;;;1.67;1.57;;;23.40;52.00;;;;;;5075100;28;20970;-83
2022/05/01 04:52:53;;;;;;;1.60;1.50;;;23.40;52.00;;;;;;5074379;28;20919;-83
2022/05/01 04:55:21;;;;;;;1.63;1.53;;;23.40;52.00;;;;;;5074974;28;20444;-83
2022/05/01 04:57:49;;;;;;;1.87;1.77;;;23.40;52.00;;;;;;5074616;28;20465;-83
2022/05/01 05:00:18;;;;;;;1.50;1.40;;;23.40;52.00;;;;;;5074883;28;20441;-83
2022/05/01 05:02:48;;;;;;;1.60;1.50;;;23.50;52.10;;;;;;5057278;28;20437;-82
2022/05/01 05:05:16;;;;;;;1.60;1.50;;;23.40;52.00;;;;;;5074763;28;20472;-83
2022/05/01 05:07:43;;;;;;;1.80;1.70;;;23.40;52.00;;;;;;5074662;28;20440;-83
2022/05/01 05:10:10;;;;;;;1.30;1.20;;;23.40;52.00;;;;;;5074699;28;20485;-83
2022/05/01 05:12:42;;;;;;;1.50;1.40;;;23.40;52.10;;;;;;5074029;28;20453;-83
2022/05/01 05:15:10;;;;;;;1.90;1.80;;;23.40;52.10;;;;;;5074843;28;20437;-83
2022/05/01 05:17:38;;;;;;;1.70;1.60;;;23.40;52.00;;;;;;5074452;28;20810;-83
2022/05/01 05:20:06;;;;;;;1.60;1.50;;;23.50;52.10;;;;;;5074316;28;20448;-82
2022/05/01 05:22:34;;;;;;;1.50;1.30;;;23.40;52.10;;;;;;5074017;28;20441;-82
2022/05/01 05:25:01;;;;;;;1.40;1.30;;;23.40;52.10;;;;;;5074364;28;20445;-83
2022/05/01 05:27:28;;;;;;;1.80;1.70;;;23.30;52.00;;;;;;5074203;28;20472;-82
2022/05/01 05:29:57;;;;;;;2.03;1.60;;;23.30;52.00;;;;;;5074104;28;21018;-83
2022/05/01 05:32:25;;;;;;;1.67;1.57;;;23.40;52.10;;;;;;5073599;28;20444;-84
2022/05/01 05:34:52;;;;;;;1.50;1.40;;;23.40;52.10;;;;;;5072741;28;20459;-82
2022/05/01 05:37:21;;;;;;;1.60;1.50;;;23.40;52.10;;;;;;5074715;28;20445;-87
2022/05/01 05:39:49;;;;;;;2.90;2.50;;;23.30;52.10;;;;;;5074806;28;20475;-88
2022/05/01 05:42:17;;;;;;;3.00;2.10;;;23.20;51.90;;;;;;5073773;28;20453;-88
2022/05/01 05:54:54;;;;;;;1.90;1.80;;;23.10;52.20;;;;;;5051613;28;20456;-88
2022/05/01 05:57:22;;;;;;;1.60;1.50;;;23.10;52.20;;;;;;5050019;28;20484;-83
2022/05/01 05:59:49;;;;;;;1.77;1.67;;;23.10;52.40;;;;;;5050575;28;20438;-83
2022/05/01 06:02:16;;;;;;;3.50;3.10;;;23.10;52.40;;;;;;5048934;28;20461;-85
2022/05/01 06:04:42;;;;;;;2.70;2.50;;;23.00;51.90;;;;;;5049450;28;20979;-84
2022/05/01 06:07:09;;;;;;;1.90;1.80;;;23.10;51.90;;;;;;5032396;28;20441;-84
2022/05/01 06:09:36;;;;;;;1.87;1.70;;;23.10;52.10;;;;;;5049432;28;21086;-83
2022/05/01 06:12:03;;;;;;;1.83;1.73;;;23.10;52.40;;;;;;5048988;28;20449;-83
2022/05/01 06:14:31;;;;;;;1.87;1.77;;;23.10;52.40;;;;;;5049611;28;20453;-83
2022/05/01 06:16:58;;;;;;;1.93;1.70;;;23.10;52.50;;;;;;5050244;28;20422;-85
2022/05/01 06:22:08;;;;;;;3.10;1.83;;;23.10;52.50;;;;;;5064944;28;20460;-84
2022/05/01 06:24:34;;;;;;;4.63;2.00;;;23.10;52.60;;;;;;5074125;28;20444;-84
2022/05/01 06:27:01;;;;;;;1.70;1.60;;;23.10;52.60;;;;;;5073463;28;20788;-83
2022/05/01 06:29:28;;;;;;;1.90;1.80;;;23.10;52.60;;;;;;5073427;28;20472;-83
2022/05/01 06:31:56;;;;;;;2.23;2.07;;;23.10;52.60;;;;;;5073231;28;20452;-91
2022/05/01 06:34:23;;;;;;;2.37;2.13;;;23.10;52.60;;;;;;5073382;28;20445;-83
2022/05/01 06:36:50;;;;;;;1.63;1.53;;;23.10;52.60;;;;;;5073144;28;20437;-83
2022/05/01 06:39:16;;;;;;;2.23;2.03;;;23.10;52.70;;;;;;5065842;28;20462;-83
2022/05/01 06:41:43;;;;;;;1.57;1.47;;;23.10;52.60;;;;;;5073528;28;20437;-82
2022/05/01 06:44:10;;;;;;;1.93;1.83;;;23.20;52.70;;;;;;5073408;28;20448;-81
2022/05/01 06:46:37;;;;;;;1.70;1.60;;;23.20;52.70;;;;;;5055159;28;20924;-82
2022/05/01 06:49:05;;;;;;;2.10;2.00;;;23.20;52.90;;;;;;5073516;28;20434;-81
2022/05/01 06:51:32;;;;;;;1.70;1.60;;;23.40;52.90;;;;;;5073095;28;20502;-82
2022/05/01 06:53:59;;;;;;;1.63;1.53;;;23.20;52.70;;;;;;5073527;28;20761;-90
2022/05/01 06:56:25;;;;;;;2.80;1.83;;;23.30;52.70;;;;;;5072924;28;20436;-95
2022/05/01 06:58:52;;;;;;;1.63;1.53;;;23.30;52.70;;;;;;5072857;28;20448;-83
2022/05/01 07:01:19;;;;;;;7.53;2.37;;;23.30;52.70;;;;;;5084009;28;20455;-83
2022/05/01 07:03:49;;;;;;;3.00;1.87;;;23.30;52.50;;;;;;5089983;28;20452;-82
2022/05/01 07:06:18;;;;;;;2.73;2.53;;;23.30;52.40;;;;;;5077272;28;20465;-83
2022/05/01 07:08:45;;;;;;;1.73;1.63;;;23.40;52.60;;;;;;5082680;28;20923;-83
2022/05/01 07:11:11;;;;;;;1.83;1.73;;;23.40;52.70;;;;;;5075184;28;20494;-82
2022/05/01 07:13:40;;;;;;;1.60;1.50;;;23.40;52.80;;;;;;5074130;28;20453;-82
2022/05/01 07:16:07;;;;;;;2.17;1.83;;;23.40;52.70;;;;;;5074050;28;20448;-83
2022/05/01 07:18:33;;;;;;;1.70;1.50;;;23.40;52.70;;;;;;5073847;28;20459;-83
2022/05/01 07:21:00;;;;;;;1.93;1.50;;;23.60;52.90;;;;;;5073353;28;20924;-81
2022/05/01 07:23:30;;;;;;;2.00;1.67;;;23.40;52.70;;;;;;5080748;28;20433;-81
2022/05/01 07:25:57;;;;;;;1.50;1.40;;;23.50;52.70;;;;;;5078743;28;20441;-90
2022/05/01 07:28:24;;;;;;;5.07;4.20;;;23.50;52.80;;;;;;5081052;28;20453;-91
2022/05/01 07:30:51;;;;;;;6.70;3.90;;;23.40;52.40;;;;;;5073730;28;20492;-83
2022/05/01 07:33:17;;;;;;;3.13;2.77;;;23.40;52.20;;;;;;5072700;28;20451;-89
2022/05/01 07:35:44;;;;;;;3.80;3.17;;;23.40;52.20;;;;;;5072709;28;20441;-89
2022/05/01 07:38:11;;;;;;;8.40;2.80;;;23.40;52.30;;;;;;5073823;28;20437;-85
2022/05/01 07:40:39;;;;;;;12.23;5.00;;;23.40;52.40;;;;;;5073140;28;20449;-84
2022/05/01 07:43:06;;;;;;;11.00;6.20;;;23.40;52.60;;;;;;5084815;28;20473;-82
2022/05/01 07:45:33;;;;;;;9.03;4.50;;;23.40;52.60;;;;;;5093825;28;20448;-89
2022/05/01 07:48:00;;;;;;;4.40;3.00;;;23.50;52.50;;;;;;5092978;28;20455;-88
2022/05/01 07:50:27;;;;;;;8.60;4.70;;;23.40;52.40;;;;;;5093641;28;20842;-92
2022/05/01 07:52:54;;;;;;;10.27;5.07;;;23.40;52.40;;;;;;5093050;28;20444;-87
2022/05/01 07:55:21;;;;;;;11.87;5.40;;;23.40;52.40;;;;;;5083464;28;20449;-87
2022/05/01 07:57:49;;;;;;;9.53;5.60;;;23.40;52.40;;;;;;5074632;28;20465;-84
2022/05/01 08:00:17;;;;;;;8.13;5.40;;;23.40;52.20;;;;;;5076614;28;20831;-91
2022/05/01 08:05:29;;;;;;;8.67;4.27;;;23.50;52.30;;;;;;5076209;28;20463;-83
2022/05/01 08:07:57;;;;;;;5.60;3.30;;;23.50;52.30;;;;;;5076299;28;20444;-85
2022/05/01 08:10:24;;;;;;;13.63;5.47;;;23.40;52.20;;;;;;5076363;28;20483;-90
2022/05/01 08:12:53;;;;;;;9.33;4.17;;;23.50;52.20;;;;;;5076483;28;20448;-83
2022/05/01 08:15:20;;;;;;;9.20;3.87;;;23.40;52.20;;;;;;5076442;28;20792;-83
2022/05/01 08:17:47;;;;;;;4.33;3.90;;;23.40;52.20;;;;;;5076650;28;20425;-90
2022/05/01 08:23:04;;;;;;;5.30;3.87;;;23.60;52.30;;;;;;5077435;28;20509;-84
2022/05/01 08:25:31;;;;;;;7.03;4.00;;;23.50;52.30;;;;;;5076422;28;20433;-84
2022/05/01 08:27:59;;;;;;;6.23;4.60;;;23.40;52.30;;;;;;5076854;28;20469;-81
2022/05/01 08:30:26;;;;;;;4.77;3.93;;;23.40;52.30;;;;;;5075714;28;20487;-87
2022/05/01 08:32:52;;;;;;;4.20;3.40;;;23.50;52.40;;;;;;5077715;28;20441;-81
2022/05/01 08:35:19;;;;;;;11.53;3.90;;;23.50;52.60;;;;;;5076768;28;20936;-82
2022/05/01 08:37:46;;;;;;;8.90;5.27;;;23.50;52.70;;;;;;5078162;28;20444;-83
2022/05/01 08:40:14;;;;;;;6.07;3.97;;;23.50;52.80;;;;;;5079342;28;20456;-89
2022/05/01 08:42:41;;;;;;;7.40;4.70;;;23.50;52.80;;;;;;5079083;28;20444;-80
2022/05/01 08:45:10;;;;;;;5.83;3.90;;;23.50;52.90;;;;;;5075030;28;20437;-80
2022/05/01 08:47:43;;;;;;;5.43;4.10;;;23.50;52.90;;;;;;5076506;28;20834;-79
2022/05/01 08:50:11;;;;;;;5.73;3.20;;;23.50;52.90;;;;;;5081599;28;20468;-79
2022/05/01 08:52:38;;;;;;;5.30;3.90;;;23.50;53.10;;;;;;5078113;28;20440;-79
2022/05/01 08:55:06;;;;;;;5.43;3.07;;;23.60;53.10;;;;;;5080793;28;20432;-80
2022/05/01 08:57:33;;;;;;;7.37;3.20;;;23.60;53.20;;;;;;5077868;28;20446;-91
2022/05/01 09:00:01;;;;;;;10.00;3.60;;;23.60;53.20;;;;;;5087183;28;20474;-90
2022/05/01 09:02:32;;;;;;;4.40;3.73;;;23.60;53.20;;;;;;5081280;28;20436;-79
2022/05/01 09:04:59;;;;;;;11.30;4.17;;;23.60;53.20;;;;;;5076514;28;20499;-80
2022/05/01 09:07:27;;;;;;;6.90;4.00;;;23.60;53.30;;;;;;5076562;28;20433;-80
2022/05/01 09:09:53;;;;;;;4.80;3.40;;;23.70;53.30;;;;;;5078440;28;20448;-89
2022/05/01 09:15:06;;;;;;;3.60;3.27;;;23.60;53.20;;;;;;5073442;28;20457;-79
2022/05/01 09:17:34;;;;;;;6.80;4.40;;;23.60;53.30;;;;;;5076208;28;20436;-79
2022/05/01 09:20:07;;;;;;;4.67;3.70;;;23.60;53.30;;;;;;5075875;28;20433;-89
2022/05/01 09:22:49;;;;;;;8.23;3.77;;;23.60;53.30;;;;;;5081341;28;20428;-79
2022/05/01 09:25:17;;;;;;;4.83;3.17;;;23.60;53.30;;;;;;5082312;28;20436;-84
2022/05/01 09:27:44;;;;;;;6.37;3.57;;;23.60;53.30;;;;;;5078857;28;20460;-79
2022/05/01 09:30:13;;;;;;;7.63;3.53;;;23.60;53.40;;;;;;5075887;28;20480;-91
2022/05/01 09:32:43;;;;;;;5.70;3.37;;;23.60;53.30;;;;;;5079517;28;20433;-79
2022/05/01 09:35:15;;;;;;;4.60;3.30;;;23.60;53.40;;;;;;5081085;28;20942;-79
2022/05/01 09:37:42;;;;;;;3.90;3.13;;;23.60;53.30;;;;;;5068926;28;20445;-79
2022/05/01 09:40:10;;;;;;;3.50;3.20;;;23.60;53.40;;;;;;5075154;28;20436;-80
2022/05/01 09:42:37;;;;;;;5.57;3.13;;;23.70;53.40;;;;;;5076349;28;20437;-81
2022/05/01 09:45:06;;;;;;;3.90;2.80;;;23.60;53.30;;;;;;5075116;28;20443;-84
2022/05/01 09:47:38;;;;;;;6.17;2.70;;;23.60;53.30;;;;;;5085331;28;20509;-89
2022/05/01 09:50:08;;;;;;;5.50;2.60;;;23.60;53.20;;;;;;5083059;28;20440;-82
2022/05/01 09:52:54;;;;;;;5.00;2.70;;;23.60;52.60;;;;;;5084820;28;20436;-83
2022/05/01 09:55:21;;;;;;;2.70;2.50;;;23.70;52.20;;;;;;5078971;28;20436;-82
2022/05/01 09:57:48;;;;;;;5.30;2.90;;;23.60;52.00;;;;;;5082688;28;21006;-82
2022/05/01 10:00:35;;;;;;;3.40;2.93;;;23.60;52.60;;;;;;5085697;28;20425;-83
2022/05/01 10:03:23;;;;;;;2.90;2.70;;;23.60;52.90;;;;;;5080928;28;20486;-91
2022/05/01 10:05:53;;;;;;;4.17;3.20;;;23.70;53.10;;;;;;5074593;28;20460;-82
2022/05/01 10:08:20;;;;;;;7.60;3.33;;;23.60;52.90;;;;;;5073104;28;20433;-80
2022/05/01 10:10:49;;;;;;;2.80;2.50;;;23.60;52.40;;;;;;5073700;28;20488;-88
2022/05/01 10:13:17;;;;;;;5.93;3.00;;;23.70;52.40;;;;;;5073590;28;20484;-87
2022/05/01 10:15:44;;;;;;;3.27;2.97;;;23.70;52.80;;;;;;5073350;28;21049;-79
2022/05/01 10:18:12;;;;;;;5.47;3.00;;;23.60;52.90;;;;;;5073585;28;20436;-78
2022/05/01 10:20:39;;;;;;;4.90;2.73;;;23.70;53.10;;;;;;5072764;28;20452;-79
2022/05/01 10:23:08;;;;;;;3.00;2.70;;;23.70;53.10;;;;;;5073417;28;20452;-79
2022/05/01 10:25:38;;;;;;;4.90;2.90;;;23.70;52.60;;;;;;5073397;28;20471;-78
2022/05/01 10:28:17;;;;;;;3.40;2.90;;;23.70;53.10;;;;;;5073676;28;20455;-79
2022/05/01 10:33:55;;;;;;;3.10;2.37;;;23.70;53.10;;;;;;5073392;28;20523;-78
2022/05/01 10:36:43;;;;;;;4.13;2.60;;;23.70;53.10;;;;;;5073122;28;20500;-85
2022/05/01 10:39:14;;;;;;;2.80;2.33;;;23.70;53.10;;;;;;5063199;28;20445;-78
2022/05/01 10:41:43;;;;;;;3.87;2.47;;;23.70;53.10;;;;;;5073478;28;20460;-79
2022/05/01 10:44:26;;;;;;;2.47;2.27;;;23.70;53.10;;;;;;5073341;28;20443;-78
2022/05/01 10:46:54;;;;;;;4.73;2.70;;;23.70;53.10;;;;;;5073278;28;20433;-78
2022/05/01 10:49:35;;;;;;;2.80;2.10;;;23.70;53.10;;;;;;5073347;28;20441;-78
2022/05/01 10:52:16;;;;;;;2.37;2.17;;;23.70;53.10;;;;;;5073046;28;20866;-84
2022/05/01 10:54:54;;;;;;;2.90;2.70;;;23.70;53.00;;;;;;5073314;28;20448;-81
2022/05/01 10:57:23;;;;;;;2.57;2.10;;;23.70;53.10;;;;;;5072997;28;20444;-77
2022/05/01 11:00:09;;;;;;;3.10;2.00;;;23.70;53.00;;;;;;5073034;28;20441;-78
2022/05/01 11:02:41;;;;;;;2.80;2.30;;;23.80;53.10;;;;;;5073040;28;20499;-79
2022/05/01 11:05:10;;;;;;;2.80;2.60;;;23.80;53.10;;;;;;5072743;28;20829;-78
2022/05/01 11:07:39;;;;;;;4.13;2.23;;;23.80;53.10;;;;;;5073113;28;20441;-78
2022/05/01 11:10:10;;;;;;;2.47;2.13;;;23.70;53.00;;;;;;5072906;28;20499;-78
2022/05/01 11:12:38;;;;;;;2.83;2.10;;;23.80;53.10;;;;;;5073066;28;20480;-78
2022/05/01 11:15:07;;;;;;;2.83;2.43;;;23.80;53.10;;;;;;5072915;28;20448;-78
2022/05/01 11:17:57;;;;;;;3.10;2.27;;;23.80;53.10;;;;;;5072903;28;20436;-78
2022/05/01 11:20:34;;;;;;;2.40;2.07;;;23.80;53.00;;;;;;5073005;28;20437;-78
2022/05/01 11:23:34;;;;;;;2.87;2.63;;;23.70;53.00;;;;;;5072856;28;20495;-79
2022/05/01 11:26:13;;;;;;;2.63;1.90;;;23.80;53.00;;;;;;5061523;28;20843;-78
2022/05/01 11:28:48;;;;;;;2.30;2.00;;;23.80;53.10;;;;;;5073068;28;20441;-78
2022/05/01 11:31:58;;;;;;;2.37;2.00;;;23.80;53.10;;;;;;5073642;28;20815;-78
2022/05/01 11:34:52;;;;;;;2.40;2.20;;;23.80;53.00;;;;;;5076614;28;20432;-78
2022/05/01 11:37:20;;;;;;;3.73;2.50;;;23.80;53.10;;;;;;5076634;28;20447;-78
2022/05/01 11:40:16;;;;;;;3.60;2.50;;;23.80;53.10;;;;;;5076534;28;20436;-78
2022/05/01 11:42:44;;;;;;;3.90;1.90;;;23.80;53.00;;;;;;5076576;28;20849;-79
2022/05/01 11:45:11;;;;;;;2.77;1.80;;;23.80;53.00;;;;;;5076607;28;20440;-78
2022/05/01 11:47:40;;;;;;;2.13;1.93;;;23.80;53.00;;;;;;5076498;28;20433;-79
2022/05/01 11:50:16;;;;;;;3.43;2.20;;;23.80;53.00;;;;;;5076492;28;20451;-79
2022/05/01 11:52:47;;;;;;;2.30;2.20;;;23.80;53.60;;;;;;5076421;28;20488;-78
2022/05/01 11:55:16;;;;;;;2.10;1.90;;;23.90;53.00;;;;;;5076283;28;20522;-78
2022/05/01 12:03:30;;;;;;;2.10;1.67;;;23.80;52.90;;;;;;5076106;28;20432;-78
2022/05/01 12:05:57;;;;;;;3.50;3.20;;;23.80;52.90;;;;;;5076118;28;20531;-78
2022/05/01 12:08:24;;;;;;;2.40;2.17;;;23.80;52.90;;;;;;5075999;28;20793;-78
2022/05/01 12:10:51;;;;;;;2.10;1.90;;;23.90;53.00;;;;;;5076017;28;20443;-78
2022/05/01 12:13:22;;;;;;;2.23;1.70;;;23.90;52.90;;;;;;5076042;28;20502;-78
2022/05/01 12:15:49;;;;;;;2.03;1.87;;;23.90;53.00;;;;;;5076066;28;20499;-78
2022/05/01 12:18:16;;;;;;;1.90;1.80;;;23.90;52.90;;;;;;5076010;28;20447;-78
2022/05/01 12:20:43;;;;;;;2.50;2.30;;;23.90;53.00;;;;;;5075908;28;20440;-82
2022/05/01 12:23:16;;;;;;;1.60;1.50;;;23.90;52.90;;;;;;5075759;28;20468;-78
2022/05/01 12:25:46;;;;;;;3.30;2.17;;;23.90;52.90;;;;;;5075770;28;20468;-78
2022/05/01 12:28:15;;;;;;;1.80;1.70;;;23.90;52.90;;;;;;5075751;28;20448;-79
2022/05/01 12:30:45;;;;;;;2.07;1.90;;;23.90;52.90;;;;;;5075475;28;20465;-79
2022/05/01 12:33:24;;;;;;;2.17;1.60;;;24.00;53.00;;;;;;5075703;28;20437;-79
2022/05/01 12:35:53;;;;;;;2.10;1.80;;;23.90;52.90;;;;;;5075503;28;20447;-78
2022/05/01 12:38:20;;;;;;;2.10;1.90;;;23.90;52.90;;;;;;5075495;28;20494;-79
2022/05/01 12:46:24;;;;;;;2.53;2.33;;;23.90;53.00;;;;;;5075593;28;20475;-78
2022/05/01 12:48:52;;;;;;;3.13;1.90;;;23.80;52.90;;;;;;5075328;28;20443;-79
2022/05/01 12:51:19;;;;;;;2.43;1.90;;;23.80;52.90;;;;;;5075179;28;20971;-78
2022/05/01 12:53:46;;;;;;;2.17;1.97;;;23.80;52.90;;;;;;5075429;28;20448;-78
2022/05/01 12:56:18;;;;;;;1.80;1.70;;;23.80;52.90;;;;;;5075086;28;20441;-78
2022/05/01 12:58:45;;;;;;;1.83;1.73;;;23.80;52.90;;;;;;5075349;28;20867;-79
2022/05/01 13:01:24;;;;;;;1.87;1.77;;;23.80;52.90;;;;;;5074844;28;20457;-78
2022/05/01 13:03:51;;;;;;;2.40;1.93;;;23.80;52.90;;;;;;5075058;28;20447;-79
2022/05/01 13:06:20;;;;;;;2.23;1.70;;;23.80;52.90;;;;;;5074850;28;20480;-79
2022/05/01 13:08:48;;;;;;;1.80;1.70;;;23.80;52.90;;;;;;5075007;28;20974;-78
2022/05/01 13:11:21;;;;;;;1.80;1.70;;;23.90;53.00;;;;;;5074970;28;20475;-78
2022/05/01 13:13:50;;;;;;;2.17;2.07;;;23.80;52.90;;;;;;5074768;28;20429;-78
2022/05/01 13:16:20;;;;;;;2.07;1.87;;;23.80;52.90;;;;;;5074589;28;20491;-80
2022/05/01 13:18:49;;;;;;;2.10;1.93;;;23.80;52.90;;;;;;5074664;28;20439;-80
2022/05/01 13:21:16;;;;;;;1.77;1.67;;;23.80;52.90;;;;;;5074863;28;20443;-80
2022/05/01 13:23:43;;;;;;;1.70;1.60;;;23.80;53.00;;;;;;5074543;28;20440;-80
2022/05/01 13:26:10;;;;;;;1.70;1.47;;;23.80;53.00;;;;;;5074651;28;20445;-79
2022/05/01 13:28:37;;;;;;;2.43;1.83;;;23.80;52.90;;;;;;5074523;28;20957;-81
2022/05/01 13:31:04;;;;;;;1.47;1.37;;;23.80;52.90;;;;;;5074214;28;20456;-81
2022/05/01 13:33:31;;;;;;;1.70;1.60;;;23.80;52.90;;;;;;5074400;28;20448;-80
2022/05/01 13:35:59;;;;;;;1.90;1.80;;;23.80;52.90;;;;;;5074247;28;20445;-80
2022/05/01 13:38:26;;;;;;;2.20;2.00;;;23.80;52.90;;;;;;5074447;28;20449;-79
2022/05/01 13:46:21;;;;;;;1.77;1.67;;;23.80;52.90;;;;;;5074382;28;20416;-80